sensor_id;sensor_type;location;lat;lon;timestamp;pressure;altitude;pressure_sealevel;temperature
68510;BMP180;55512;50.102;19.958;2022-11-03T00:01:47;99422.00;;;9.38
68510;BMP180;55512;50.102;19.958;2022-11-03T00:04:15;99420.80;;;9.40
68510;BMP180;55512;50.102;19.958;2022-11-03T00:06:43;99418.20;;;9.32
68510;BMP180;55512;50.102;19.958;2022-11-03T00:09:12;99419.80;;;9.30
68510;BMP180;55512;50.102;19.958;2022-11-03T00:11:40;99418.00;;;9.30
68510;BMP180;55512;50.102;19.958;2022-11-03T00:14:07;99422.80;;;9.28
68510;BMP180;55512;50.102;19.958;2022-11-03T00:16:37;99424.40;;;9.20
68510;BMP180;55512;50.102;19.958;2022-11-03T00:19:04;99428.00;;;9.20
68510;BMP180;55512;50.102;19.958;2022-11-03T00:21:31;99428.80;;;9.20
68510;BMP180;55512;50.102;19.958;2022-11-03T00:23:57;99431.00;;;9.20
68510;BMP180;55512;50.102;19.958;2022-11-03T00:26:25;99432.20;;;9.10
68510;BMP180;55512;50.102;19.958;2022-11-03T00:28:53;99439.40;;;9.10
68510;BMP180;55512;50.102;19.958;2022-11-03T00:31:26;99439.60;;;9.00
68510;BMP180;55512;50.102;19.958;2022-11-03T00:33:53;99434.00;;;9.00
68510;BMP180;55512;50.102;19.958;2022-11-03T00:36:25;99438.80;;;9.00
68510;BMP180;55512;50.102;19.958;2022-11-03T00:38:51;99428.40;;;9.00
68510;BMP180;55512;50.102;19.958;2022-11-03T00:41:18;99426.80;;;9.00
68510;BMP180;55512;50.102;19.958;2022-11-03T00:43:48;99427.80;;;9.00
68510;BMP180;55512;50.102;19.958;2022-11-03T00:46:14;99424.80;;;9.00
68510;BMP180;55512;50.102;19.958;2022-11-03T00:48:40;99423.00;;;9.00
68510;BMP180;55512;50.102;19.958;2022-11-03T00:51:12;99422.80;;;9.00
68510;BMP180;55512;50.102;19.958;2022-11-03T00:53:44;99424.00;;;9.00
68510;BMP180;55512;50.102;19.958;2022-11-03T00:56:19;99425.20;;;9.00
68510;BMP180;55512;50.102;19.958;2022-11-03T00:58:46;99432.20;;;8.92
68510;BMP180;55512;50.102;19.958;2022-11-03T01:01:15;99426.60;;;8.90
68510;BMP180;55512;50.102;19.958;2022-11-03T01:03:44;99430.00;;;8.90
68510;BMP180;55512;50.102;19.958;2022-11-03T01:06:32;99430.20;;;8.90
68510;BMP180;55512;50.102;19.958;2022-11-03T01:09:26;99430.60;;;8.90
68510;BMP180;55512;50.102;19.958;2022-11-03T01:16:58;99433.60;;;8.80
68510;BMP180;55512;50.102;19.958;2022-11-03T01:19:24;99436.60;;;8.74
68510;BMP180;55512;50.102;19.958;2022-11-03T01:21:52;99437.00;;;8.72
68510;BMP180;55512;50.102;19.958;2022-11-03T01:24:18;99440.20;;;8.70
68510;BMP180;55512;50.102;19.958;2022-11-03T01:26:43;99436.00;;;8.70
68510;BMP180;55512;50.102;19.958;2022-11-03T01:29:09;99440.00;;;8.70
68510;BMP180;55512;50.102;19.958;2022-11-03T01:31:34;99441.60;;;8.70
68510;BMP180;55512;50.102;19.958;2022-11-03T01:33:59;99436.40;;;8.70
68510;BMP180;55512;50.102;19.958;2022-11-03T01:36:25;99436.60;;;8.60
68510;BMP180;55512;50.102;19.958;2022-11-03T01:38:54;99441.00;;;8.50
68510;BMP180;55512;50.102;19.958;2022-11-03T01:41:24;99442.80;;;8.50
68510;BMP180;55512;50.102;19.958;2022-11-03T01:47:09;99447.60;;;8.40
68510;BMP180;55512;50.102;19.958;2022-11-03T01:49:56;99443.40;;;8.40
68510;BMP180;55512;50.102;19.958;2022-11-03T01:52:34;99442.60;;;8.40
68510;BMP180;55512;50.102;19.958;2022-11-03T01:55:12;99435.80;;;8.40
68510;BMP180;55512;50.102;19.958;2022-11-03T01:58:18;99430.80;;;8.36
68510;BMP180;55512;50.102;19.958;2022-11-03T02:00:47;99431.00;;;8.30
68510;BMP180;55512;50.102;19.958;2022-11-03T02:03:14;99422.40;;;8.30
68510;BMP180;55512;50.102;19.958;2022-11-03T02:05:44;99420.60;;;8.30
68510;BMP180;55512;50.102;19.958;2022-11-03T02:08:19;99422.20;;;8.20
68510;BMP180;55512;50.102;19.958;2022-11-03T02:10:47;99420.40;;;8.20
68510;BMP180;55512;50.102;19.958;2022-11-03T02:13:26;99417.40;;;8.10
68510;BMP180;55512;50.102;19.958;2022-11-03T02:15:56;99419.80;;;8.10
68510;BMP180;55512;50.102;19.958;2022-11-03T02:18:31;99417.00;;;8.02
68510;BMP180;55512;50.102;19.958;2022-11-03T02:21:24;99416.20;;;8.00
68510;BMP180;55512;50.102;19.958;2022-11-03T02:24:23;99421.60;;;7.98
68510;BMP180;55512;50.102;19.958;2022-11-03T02:26:55;99423.40;;;7.94
68510;BMP180;55512;50.102;19.958;2022-11-03T02:29:20;99427.20;;;7.90
68510;BMP180;55512;50.102;19.958;2022-11-03T02:32:13;99427.80;;;7.90
68510;BMP180;55512;50.102;19.958;2022-11-03T02:34:48;99428.20;;;7.80
68510;BMP180;55512;50.102;19.958;2022-11-03T02:37:40;99424.80;;;7.80
68510;BMP180;55512;50.102;19.958;2022-11-03T02:40:11;99428.80;;;7.80
68510;BMP180;55512;50.102;19.958;2022-11-03T02:42:41;99434.80;;;7.80
68510;BMP180;55512;50.102;19.958;2022-11-03T02:45:10;99436.40;;;7.78
68510;BMP180;55512;50.102;19.958;2022-11-03T02:47:38;99431.00;;;7.80
68510;BMP180;55512;50.102;19.958;2022-11-03T02:50:07;99430.00;;;7.80
68510;BMP180;55512;50.102;19.958;2022-11-03T02:52:40;99435.20;;;7.80
68510;BMP180;55512;50.102;19.958;2022-11-03T02:55:34;99432.60;;;7.80
68510;BMP180;55512;50.102;19.958;2022-11-03T02:58:13;99432.20;;;7.76
68510;BMP180;55512;50.102;19.958;2022-11-03T03:00:53;99431.00;;;7.70
68510;BMP180;55512;50.102;19.958;2022-11-03T03:03:36;99430.40;;;7.70
68510;BMP180;55512;50.102;19.958;2022-11-03T03:06:09;99435.20;;;7.70
68510;BMP180;55512;50.102;19.958;2022-11-03T03:08:42;99436.40;;;7.66
68510;BMP180;55512;50.102;19.958;2022-11-03T03:11:11;99432.00;;;7.60
68510;BMP180;55512;50.102;19.958;2022-11-03T03:13:40;99432.20;;;7.60
68510;BMP180;55512;50.102;19.958;2022-11-03T03:16:19;99435.60;;;7.54
68510;BMP180;55512;50.102;19.958;2022-11-03T03:19:03;99436.20;;;7.50
68510;BMP180;55512;50.102;19.958;2022-11-03T03:21:40;99439.20;;;7.50
68510;BMP180;55512;50.102;19.958;2022-11-03T03:24:37;99439.20;;;7.46
68510;BMP180;55512;50.102;19.958;2022-11-03T03:27:10;99437.60;;;7.42
68510;BMP180;55512;50.102;19.958;2022-11-03T03:29:49;99434.80;;;7.40
68510;BMP180;55512;50.102;19.958;2022-11-03T03:32:21;99436.00;;;7.40
68510;BMP180;55512;50.102;19.958;2022-11-03T03:34:50;99435.00;;;7.40
68510;BMP180;55512;50.102;19.958;2022-11-03T03:37:19;99438.00;;;7.40
68510;BMP180;55512;50.102;19.958;2022-11-03T03:39:51;99444.40;;;7.30
68510;BMP180;55512;50.102;19.958;2022-11-03T03:42:20;99444.00;;;7.30
68510;BMP180;55512;50.102;19.958;2022-11-03T03:44:50;99447.40;;;7.30
68510;BMP180;55512;50.102;19.958;2022-11-03T03:47:28;99447.00;;;7.28
68510;BMP180;55512;50.102;19.958;2022-11-03T03:49:55;99449.40;;;7.20
68510;BMP180;55512;50.102;19.958;2022-11-03T03:52:21;99440.60;;;7.20
68510;BMP180;55512;50.102;19.958;2022-11-03T03:54:47;99436.80;;;7.10
68510;BMP180;55512;50.102;19.958;2022-11-03T03:57:19;99433.20;;;7.10
68510;BMP180;55512;50.102;19.958;2022-11-03T03:59:46;99435.00;;;7.00
68510;BMP180;55512;50.102;19.958;2022-11-03T04:02:12;99433.00;;;7.00
68510;BMP180;55512;50.102;19.958;2022-11-03T04:04:38;99436.80;;;6.92
68510;BMP180;55512;50.102;19.958;2022-11-03T04:07:04;99431.40;;;6.90
68510;BMP180;55512;50.102;19.958;2022-11-03T04:09:48;99431.60;;;6.90
68510;BMP180;55512;50.102;19.958;2022-11-03T04:12:13;99432.80;;;6.84
68510;BMP180;55512;50.102;19.958;2022-11-03T04:14:57;99432.20;;;6.80
68510;BMP180;55512;50.102;19.958;2022-11-03T04:17:45;99431.20;;;6.80
68510;BMP180;55512;50.102;19.958;2022-11-03T04:20:30;99431.20;;;6.80
68510;BMP180;55512;50.102;19.958;2022-11-03T04:23:14;99427.20;;;6.80
68510;BMP180;55512;50.102;19.958;2022-11-03T04:25:41;99427.60;;;6.80
68510;BMP180;55512;50.102;19.958;2022-11-03T04:28:14;99433.40;;;6.70
68510;BMP180;55512;50.102;19.958;2022-11-03T04:30:40;99432.20;;;6.70
68510;BMP180;55512;50.102;19.958;2022-11-03T04:33:18;99425.40;;;6.64
68510;BMP180;55512;50.102;19.958;2022-11-03T04:35:46;99423.60;;;6.62
68510;BMP180;55512;50.102;19.958;2022-11-03T04:40:41;99421.00;;;6.60
68510;BMP180;55512;50.102;19.958;2022-11-03T04:43:17;99417.60;;;6.60
68510;BMP180;55512;50.102;19.958;2022-11-03T04:45:45;99417.00;;;6.60
68510;BMP180;55512;50.102;19.958;2022-11-03T04:48:15;99417.80;;;6.60
68510;BMP180;55512;50.102;19.958;2022-11-03T04:50:41;99416.00;;;6.60
68510;BMP180;55512;50.102;19.958;2022-11-03T04:53:16;99413.00;;;6.60
68510;BMP180;55512;50.102;19.958;2022-11-03T04:55:44;99413.40;;;6.60
68510;BMP180;55512;50.102;19.958;2022-11-03T04:58:31;99410.20;;;6.60
68510;BMP180;55512;50.102;19.958;2022-11-03T05:01:00;99412.20;;;6.60
68510;BMP180;55512;50.102;19.958;2022-11-03T05:03:31;99419.80;;;6.60
68510;BMP180;55512;50.102;19.958;2022-11-03T05:06:11;99415.00;;;6.60
68510;BMP180;55512;50.102;19.958;2022-11-03T05:08:37;99412.20;;;6.60
68510;BMP180;55512;50.102;19.958;2022-11-03T05:11:18;99414.00;;;6.60
68510;BMP180;55512;50.102;19.958;2022-11-03T05:13:45;99416.60;;;6.60
68510;BMP180;55512;50.102;19.958;2022-11-03T05:16:11;99413.00;;;6.58
68510;BMP180;55512;50.102;19.958;2022-11-03T05:18:42;99415.00;;;6.52
68510;BMP180;55512;50.102;19.958;2022-11-03T05:21:12;99415.60;;;6.52
68510;BMP180;55512;50.102;19.958;2022-11-03T05:23:47;99413.40;;;6.50
68510;BMP180;55512;50.102;19.958;2022-11-03T05:26:21;99412.80;;;6.50
68510;BMP180;55512;50.102;19.958;2022-11-03T05:28:57;99414.00;;;6.50
68510;BMP180;55512;50.102;19.958;2022-11-03T05:31:34;99419.40;;;6.50
68510;BMP180;55512;50.102;19.958;2022-11-03T05:34:10;99419.20;;;6.50
68510;BMP180;55512;50.102;19.958;2022-11-03T05:36:37;99417.00;;;6.50
68510;BMP180;55512;50.102;19.958;2022-11-03T05:39:30;99412.80;;;6.50
68510;BMP180;55512;50.102;19.958;2022-11-03T05:42:00;99409.00;;;6.42
68510;BMP180;55512;50.102;19.958;2022-11-03T05:44:38;99411.20;;;6.40
68510;BMP180;55512;50.102;19.958;2022-11-03T05:47:17;99409.80;;;6.40
68510;BMP180;55512;50.102;19.958;2022-11-03T05:49:43;99405.00;;;6.40
68510;BMP180;55512;50.102;19.958;2022-11-03T05:52:18;99405.00;;;6.40
68510;BMP180;55512;50.102;19.958;2022-11-03T05:54:45;99408.00;;;6.40
68510;BMP180;55512;50.102;19.958;2022-11-03T05:57:15;99407.00;;;6.40
68510;BMP180;55512;50.102;19.958;2022-11-03T05:59:44;99408.20;;;6.40
68510;BMP180;55512;50.102;19.958;2022-11-03T06:02:38;99413.80;;;6.40
68510;BMP180;55512;50.102;19.958;2022-11-03T06:05:33;99412.00;;;6.42
68510;BMP180;55512;50.102;19.958;2022-11-03T06:08:02;99408.40;;;6.48
68510;BMP180;55512;50.102;19.958;2022-11-03T06:10:41;99410.00;;;6.50
68510;BMP180;55512;50.102;19.958;2022-11-03T06:13:21;99412.80;;;6.50
68510;BMP180;55512;50.102;19.958;2022-11-03T06:15:56;99414.00;;;6.60
68510;BMP180;55512;50.102;19.958;2022-11-03T06:18:28;99411.20;;;6.60
68510;BMP180;55512;50.102;19.958;2022-11-03T06:21:20;99407.20;;;6.68
68510;BMP180;55512;50.102;19.958;2022-11-03T06:23:47;99413.00;;;6.70
68510;BMP180;55512;50.102;19.958;2022-11-03T06:26:23;99417.00;;;6.70
68510;BMP180;55512;50.102;19.958;2022-11-03T06:28:50;99420.60;;;6.80
68510;BMP180;55512;50.102;19.958;2022-11-03T06:31:23;99422.60;;;6.80
68510;BMP180;55512;50.102;19.958;2022-11-03T06:33:51;99423.20;;;6.80
68510;BMP180;55512;50.102;19.958;2022-11-03T06:36:22;99425.00;;;6.80
68510;BMP180;55512;50.102;19.958;2022-11-03T06:39:00;99423.80;;;6.80
68510;BMP180;55512;50.102;19.958;2022-11-03T06:41:29;99425.80;;;6.90
68510;BMP180;55512;50.102;19.958;2022-11-03T06:44:01;99426.80;;;6.90
68510;BMP180;55512;50.102;19.958;2022-11-03T06:46:27;99430.80;;;6.94
68510;BMP180;55512;50.102;19.958;2022-11-03T06:48:58;99432.00;;;6.98
68510;BMP180;55512;50.102;19.958;2022-11-03T06:51:29;99434.20;;;7.00
68510;BMP180;55512;50.102;19.958;2022-11-03T06:54:00;99434.40;;;6.90
68510;BMP180;55512;50.102;19.958;2022-11-03T06:56:30;99438.60;;;6.90
68510;BMP180;55512;50.102;19.958;2022-11-03T06:58:59;99438.40;;;7.00
68510;BMP180;55512;50.102;19.958;2022-11-03T07:01:30;99437.60;;;7.00
68510;BMP180;55512;50.102;19.958;2022-11-03T07:04:01;99435.20;;;7.08
68510;BMP180;55512;50.102;19.958;2022-11-03T07:06:36;99438.20;;;7.10
68510;BMP180;55512;50.102;19.958;2022-11-03T07:09:06;99440.40;;;7.20
68510;BMP180;55512;50.102;19.958;2022-11-03T07:11:47;99436.40;;;7.22
68510;BMP180;55512;50.102;19.958;2022-11-03T07:14:21;99434.60;;;7.30
68510;BMP180;55512;50.102;19.958;2022-11-03T07:17:00;99436.80;;;7.38
68510;BMP180;55512;50.102;19.958;2022-11-03T07:19:35;99436.00;;;7.40
68510;BMP180;55512;50.102;19.958;2022-11-03T07:22:09;99428.00;;;7.50
68510;BMP180;55512;50.102;19.958;2022-11-03T07:24:42;99423.80;;;7.58
68510;BMP180;55512;50.102;19.958;2022-11-03T07:27:35;99424.00;;;7.60
68510;BMP180;55512;50.102;19.958;2022-11-03T07:30:25;99425.80;;;7.68
68510;BMP180;55512;50.102;19.958;2022-11-03T07:32:53;99419.40;;;7.70
68510;BMP180;55512;50.102;19.958;2022-11-03T07:35:33;99416.80;;;7.80
68510;BMP180;55512;50.102;19.958;2022-11-03T07:38:08;99412.80;;;7.88
68510;BMP180;55512;50.102;19.958;2022-11-03T07:40:36;99410.20;;;7.90
68510;BMP180;55512;50.102;19.958;2022-11-03T07:43:14;99409.20;;;8.00
68510;BMP180;55512;50.102;19.958;2022-11-03T07:46:10;99408.60;;;8.00
68510;BMP180;55512;50.102;19.958;2022-11-03T07:48:47;99401.00;;;8.10
68510;BMP180;55512;50.102;19.958;2022-11-03T07:51:30;99395.20;;;8.16
68510;BMP180;55512;50.102;19.958;2022-11-03T07:54:15;99394.80;;;8.20
68510;BMP180;55512;50.102;19.958;2022-11-03T07:56:55;99395.80;;;8.30
68510;BMP180;55512;50.102;19.958;2022-11-03T07:59:49;99389.20;;;8.40
68510;BMP180;55512;50.102;19.958;2022-11-03T08:02:31;99386.20;;;8.42
68510;BMP180;55512;50.102;19.958;2022-11-03T08:04:58;99387.00;;;8.50
68510;BMP180;55512;50.102;19.958;2022-11-03T08:07:24;99381.60;;;8.60
68510;BMP180;55512;50.102;19.958;2022-11-03T08:09:50;99375.40;;;8.68
68510;BMP180;55512;50.102;19.958;2022-11-03T08:12:16;99372.80;;;8.70
68510;BMP180;55512;50.102;19.958;2022-11-03T08:14:41;99369.00;;;8.80
68510;BMP180;55512;50.102;19.958;2022-11-03T08:17:07;99365.00;;;8.88
68510;BMP180;55512;50.102;19.958;2022-11-03T08:19:33;99361.60;;;8.90
68510;BMP180;55512;50.102;19.958;2022-11-03T08:21:58;99355.20;;;9.00
68510;BMP180;55512;50.102;19.958;2022-11-03T08:24:24;99349.80;;;9.10
68510;BMP180;55512;50.102;19.958;2022-11-03T08:26:49;99350.60;;;9.18
68510;BMP180;55512;50.102;19.958;2022-11-03T08:29:14;99354.80;;;9.20
68510;BMP180;55512;50.102;19.958;2022-11-03T08:31:42;99353.80;;;9.30
68510;BMP180;55512;50.102;19.958;2022-11-03T08:34:08;99355.00;;;9.40
68510;BMP180;55512;50.102;19.958;2022-11-03T08:36:34;99351.60;;;9.40
68510;BMP180;55512;50.102;19.958;2022-11-03T08:39:00;99352.00;;;9.50
68510;BMP180;55512;50.102;19.958;2022-11-03T08:41:25;99350.00;;;9.58
68510;BMP180;55512;50.102;19.958;2022-11-03T08:43:50;99349.20;;;9.60
68510;BMP180;55512;50.102;19.958;2022-11-03T08:46:16;99346.20;;;9.70
68510;BMP180;55512;50.102;19.958;2022-11-03T08:48:42;99346.60;;;9.80
68510;BMP180;55512;50.102;19.958;2022-11-03T08:51:07;99344.80;;;9.80
68510;BMP180;55512;50.102;19.958;2022-11-03T08:53:34;99340.20;;;9.90
68510;BMP180;55512;50.102;19.958;2022-11-03T08:56:00;99336.80;;;10.00
68510;BMP180;55512;50.102;19.958;2022-11-03T08:58:25;99335.80;;;10.10
68510;BMP180;55512;50.102;19.958;2022-11-03T09:00:51;99337.40;;;10.10
68510;BMP180;55512;50.102;19.958;2022-11-03T09:03:16;99333.40;;;10.20
68510;BMP180;55512;50.102;19.958;2022-11-03T09:05:42;99331.80;;;10.28
68510;BMP180;55512;50.102;19.958;2022-11-03T09:08:08;99329.40;;;10.30
68510;BMP180;55512;50.102;19.958;2022-11-03T09:10:33;99325.60;;;10.40
68510;BMP180;55512;50.102;19.958;2022-11-03T09:12:59;99328.20;;;10.50
68510;BMP180;55512;50.102;19.958;2022-11-03T09:15:24;99328.60;;;10.50
68510;BMP180;55512;50.102;19.958;2022-11-03T09:17:50;99327.40;;;10.60
68510;BMP180;55512;50.102;19.958;2022-11-03T09:20:16;99322.80;;;10.70
68510;BMP180;55512;50.102;19.958;2022-11-03T09:22:41;99320.80;;;10.70
68510;BMP180;55512;50.102;19.958;2022-11-03T09:25:07;99320.00;;;10.80
68510;BMP180;55512;50.102;19.958;2022-11-03T09:27:33;99318.60;;;10.90
68510;BMP180;55512;50.102;19.958;2022-11-03T09:29:58;99311.00;;;10.90
68510;BMP180;55512;50.102;19.958;2022-11-03T09:32:24;99305.00;;;11.00
68510;BMP180;55512;50.102;19.958;2022-11-03T09:34:50;99310.80;;;11.02
68510;BMP180;55512;50.102;19.958;2022-11-03T09:37:15;99307.00;;;11.10
68510;BMP180;55512;50.102;19.958;2022-11-03T09:39:42;99311.40;;;11.20
68510;BMP180;55512;50.102;19.958;2022-11-03T09:42:12;99300.80;;;11.20
68510;BMP180;55512;50.102;19.958;2022-11-03T09:44:38;99295.60;;;11.30
68510;BMP180;55512;50.102;19.958;2022-11-03T09:47:05;99289.60;;;11.40
68510;BMP180;55512;50.102;19.958;2022-11-03T09:49:32;99287.40;;;11.44
68510;BMP180;55512;50.102;19.958;2022-11-03T09:52:01;99283.40;;;11.50
68510;BMP180;55512;50.102;19.958;2022-11-03T09:54:27;99283.20;;;11.60
68510;BMP180;55512;50.102;19.958;2022-11-03T09:56:57;99280.40;;;11.64
68510;BMP180;55512;50.102;19.958;2022-11-03T09:59:25;99279.20;;;11.70
68510;BMP180;55512;50.102;19.958;2022-11-03T10:01:52;99276.00;;;11.80
68510;BMP180;55512;50.102;19.958;2022-11-03T10:04:27;99275.60;;;11.86
68510;BMP180;55512;50.102;19.958;2022-11-03T10:06:55;99271.40;;;11.90
68510;BMP180;55512;50.102;19.958;2022-11-03T10:09:23;99268.80;;;12.00
68510;BMP180;55512;50.102;19.958;2022-11-03T10:11:52;99267.60;;;12.10
68510;BMP180;55512;50.102;19.958;2022-11-03T10:14:19;99257.60;;;12.14
68510;BMP180;55512;50.102;19.958;2022-11-03T10:16:55;99254.00;;;12.20
68510;BMP180;55512;50.102;19.958;2022-11-03T10:19:23;99246.40;;;12.30
68510;BMP180;55512;50.102;19.958;2022-11-03T10:21:50;99242.80;;;12.32
68510;BMP180;55512;50.102;19.958;2022-11-03T10:24:16;99240.80;;;12.40
68510;BMP180;55512;50.102;19.958;2022-11-03T10:26:51;99235.80;;;12.40
68510;BMP180;55512;50.102;19.958;2022-11-03T10:29:27;99231.60;;;12.50
68510;BMP180;55512;50.102;19.958;2022-11-03T10:31:56;99225.00;;;12.50
68510;BMP180;55512;50.102;19.958;2022-11-03T10:34:34;99223.40;;;12.54
68510;BMP180;55512;50.102;19.958;2022-11-03T10:37:24;99221.80;;;12.60
68510;BMP180;55512;50.102;19.958;2022-11-03T10:39:55;99222.80;;;12.66
68510;BMP180;55512;50.102;19.958;2022-11-03T10:42:28;99216.20;;;12.70
68510;BMP180;55512;50.102;19.958;2022-11-03T10:45:17;99216.20;;;12.80
68510;BMP180;55512;50.102;19.958;2022-11-03T10:47:43;99215.60;;;12.88
68510;BMP180;55512;50.102;19.958;2022-11-03T10:50:25;99216.20;;;12.90
68510;BMP180;55512;50.102;19.958;2022-11-03T10:52:52;99217.20;;;12.96
68510;BMP180;55512;50.102;19.958;2022-11-03T10:55:20;99215.20;;;13.00
68510;BMP180;55512;50.102;19.958;2022-11-03T10:57:47;99216.00;;;13.00
68510;BMP180;55512;50.102;19.958;2022-11-03T11:00:16;99211.00;;;13.10
68510;BMP180;55512;50.102;19.958;2022-11-03T11:02:45;99202.00;;;13.10
68510;BMP180;55512;50.102;19.958;2022-11-03T11:05:20;99199.60;;;13.20
68510;BMP180;55512;50.102;19.958;2022-11-03T11:07:48;99193.20;;;13.20
68510;BMP180;55512;50.102;19.958;2022-11-03T11:10:20;99189.40;;;13.30
68510;BMP180;55512;50.102;19.958;2022-11-03T11:15:50;99172.60;;;13.40
68510;BMP180;55512;50.102;19.958;2022-11-03T11:20:59;99167.40;;;13.50
68510;BMP180;55512;50.102;19.958;2022-11-03T11:23:43;99162.40;;;13.60
68510;BMP180;55512;50.102;19.958;2022-11-03T11:28:44;99152.20;;;13.70
68510;BMP180;55512;50.102;19.958;2022-11-03T11:34:41;99147.00;;;13.90
68510;BMP180;55512;50.102;19.958;2022-11-03T11:42:16;99136.00;;;14.02
68510;BMP180;55512;50.102;19.958;2022-11-03T11:52:43;99121.00;;;14.30
68510;BMP180;55512;50.102;19.958;2022-11-03T11:55:47;99115.40;;;14.40
68510;BMP180;55512;50.102;19.958;2022-11-03T11:58:23;99108.00;;;14.50
68510;BMP180;55512;50.102;19.958;2022-11-03T12:01:01;99104.60;;;14.60
68510;BMP180;55512;50.102;19.958;2022-11-03T12:03:33;99090.80;;;14.66
68510;BMP180;55512;50.102;19.958;2022-11-03T12:06:00;99089.80;;;14.70
68510;BMP180;55512;50.102;19.958;2022-11-03T12:08:29;99084.40;;;14.80
68510;BMP180;55512;50.102;19.958;2022-11-03T12:10:59;99076.80;;;14.90
68510;BMP180;55512;50.102;19.958;2022-11-03T12:13:45;99072.00;;;15.00
68510;BMP180;55512;50.102;19.958;2022-11-03T12:16:32;99067.80;;;15.10
68510;BMP180;55512;50.102;19.958;2022-11-03T12:19:43;99066.00;;;15.20
68510;BMP180;55512;50.102;19.958;2022-11-03T12:22:39;99064.60;;;15.30
68510;BMP180;55512;50.102;19.958;2022-11-03T12:25:35;99059.20;;;15.40
68510;BMP180;55512;50.102;19.958;2022-11-03T12:28:01;99053.00;;;15.50
68510;BMP180;55512;50.102;19.958;2022-11-03T12:30:27;99048.40;;;15.52
68510;BMP180;55512;50.102;19.958;2022-11-03T12:32:52;99041.20;;;15.60
68510;BMP180;55512;50.102;19.958;2022-11-03T12:35:17;99041.00;;;15.70
68510;BMP180;55512;50.102;19.958;2022-11-03T12:37:43;99039.00;;;15.80
68510;BMP180;55512;50.102;19.958;2022-11-03T12:40:11;99027.20;;;15.90
68510;BMP180;55512;50.102;19.958;2022-11-03T12:42:38;99024.40;;;16.00
68510;BMP180;55512;50.102;19.958;2022-11-03T12:45:04;99021.40;;;16.10
68510;BMP180;55512;50.102;19.958;2022-11-03T12:47:31;99016.00;;;16.20
68510;BMP180;55512;50.102;19.958;2022-11-03T12:49:56;99007.80;;;16.30
68510;BMP180;55512;50.102;19.958;2022-11-03T12:52:22;99005.40;;;16.40
68510;BMP180;55512;50.102;19.958;2022-11-03T12:54:48;99003.00;;;16.50
68510;BMP180;55512;50.102;19.958;2022-11-03T12:57:13;98999.80;;;16.60
68510;BMP180;55512;50.102;19.958;2022-11-03T12:59:39;98990.40;;;16.68
68510;BMP180;55512;50.102;19.958;2022-11-03T13:02:04;98996.40;;;16.70
68510;BMP180;55512;50.102;19.958;2022-11-03T13:04:30;98995.40;;;16.80
68510;BMP180;55512;50.102;19.958;2022-11-03T13:06:55;98995.80;;;16.86
68510;BMP180;55512;50.102;19.958;2022-11-03T13:09:21;98994.80;;;16.90
68510;BMP180;55512;50.102;19.958;2022-11-03T13:11:46;98993.20;;;16.92
68510;BMP180;55512;50.102;19.958;2022-11-03T13:14:30;98990.20;;;17.00
68510;BMP180;55512;50.102;19.958;2022-11-03T13:16:56;98994.80;;;17.02
68510;BMP180;55512;50.102;19.958;2022-11-03T13:19:21;98995.00;;;17.10
68510;BMP180;55512;50.102;19.958;2022-11-03T13:21:47;98991.60;;;17.10
68510;BMP180;55512;50.102;19.958;2022-11-03T13:24:12;98988.00;;;17.20
68510;BMP180;55512;50.102;19.958;2022-11-03T13:26:38;98987.60;;;17.20
68510;BMP180;55512;50.102;19.958;2022-11-03T13:29:03;98979.40;;;17.30
68510;BMP180;55512;50.102;19.958;2022-11-03T13:31:28;98978.60;;;17.40
68510;BMP180;55512;50.102;19.958;2022-11-03T13:33:55;98975.60;;;17.50
68510;BMP180;55512;50.102;19.958;2022-11-03T13:36:20;98975.00;;;17.60
68510;BMP180;55512;50.102;19.958;2022-11-03T13:38:46;98973.40;;;17.78
68510;BMP180;55512;50.102;19.958;2022-11-03T13:41:11;98973.20;;;17.90
68510;BMP180;55512;50.102;19.958;2022-11-03T13:43:37;98969.40;;;18.00
68510;BMP180;55512;50.102;19.958;2022-11-03T13:46:02;98968.80;;;18.10
68510;BMP180;55512;50.102;19.958;2022-11-03T13:48:29;98965.80;;;18.26
68510;BMP180;55512;50.102;19.958;2022-11-03T13:50:55;98967.20;;;18.30
68510;BMP180;55512;50.102;19.958;2022-11-03T13:53:21;98968.20;;;18.40
68510;BMP180;55512;50.102;19.958;2022-11-03T13:55:47;98966.80;;;18.40
68510;BMP180;55512;50.102;19.958;2022-11-03T13:58:13;98962.20;;;18.50
68510;BMP180;55512;50.102;19.958;2022-11-03T14:00:38;98954.80;;;18.52
68510;BMP180;55512;50.102;19.958;2022-11-03T14:03:04;98952.60;;;18.60
68510;BMP180;55512;50.102;19.958;2022-11-03T14:05:30;98950.60;;;18.70
68510;BMP180;55512;50.102;19.958;2022-11-03T14:07:56;98947.20;;;18.84
68510;BMP180;55512;50.102;19.958;2022-11-03T14:10:21;98947.80;;;19.24
68510;BMP180;55512;50.102;19.958;2022-11-03T14:12:47;98941.20;;;19.96
68510;BMP180;55512;50.102;19.958;2022-11-03T14:15:12;98943.40;;;20.74
68510;BMP180;55512;50.102;19.958;2022-11-03T14:17:38;98937.20;;;21.30
68510;BMP180;55512;50.102;19.958;2022-11-03T14:20:07;98936.00;;;21.72
68510;BMP180;55512;50.102;19.958;2022-11-03T14:22:34;98932.60;;;22.00
68510;BMP180;55512;50.102;19.958;2022-11-03T14:25:00;98930.00;;;22.00
68510;BMP180;55512;50.102;19.958;2022-11-03T14:27:26;98924.80;;;21.80
68510;BMP180;55512;50.102;19.958;2022-11-03T14:29:51;98922.60;;;21.60
68510;BMP180;55512;50.102;19.958;2022-11-03T14:32:18;98922.20;;;21.40
68510;BMP180;55512;50.102;19.958;2022-11-03T14:34:44;98924.20;;;21.08
68510;BMP180;55512;50.102;19.958;2022-11-03T14:37:10;98924.60;;;20.70
68510;BMP180;55512;50.102;19.958;2022-11-03T14:39:37;98921.60;;;20.60
68510;BMP180;55512;50.102;19.958;2022-11-03T14:42:05;98924.60;;;20.60
68510;BMP180;55512;50.102;19.958;2022-11-03T14:44:37;98921.00;;;20.32
68510;BMP180;55512;50.102;19.958;2022-11-03T14:47:07;98923.40;;;19.94
68510;BMP180;55512;50.102;19.958;2022-11-03T14:49:34;98920.20;;;19.50
68510;BMP180;55512;50.102;19.958;2022-11-03T14:52:01;98912.80;;;19.10
68510;BMP180;55512;50.102;19.958;2022-11-03T14:54:28;98909.80;;;18.70
68510;BMP180;55512;50.102;19.958;2022-11-03T14:56:55;98906.20;;;18.30
68510;BMP180;55512;50.102;19.958;2022-11-03T14:59:21;98901.40;;;17.96
68510;BMP180;55512;50.102;19.958;2022-11-03T15:01:49;98897.60;;;17.60
68510;BMP180;55512;50.102;19.958;2022-11-03T15:04:16;98895.00;;;17.28